sensor_id;sensor_type;location;lat;lon;timestamp;temperature;humidity
13589;DHT22;6865;52.552;13.434;2023-04-16T00:00:49;10.00;99.90
13589;DHT22;6865;52.552;13.434;2023-04-16T00:03:16;10.00;99.90
13589;DHT22;6865;52.552;13.434;2023-04-16T00:05:43;10.00;99.90
13589;DHT22;6865;52.552;13.434;2023-04-16T00:08:09;10.00;99.90
13589;DHT22;6865;52.552;13.434;2023-04-16T00:10:36;10.00;99.90
13589;DHT22;6865;52.552;13.434;2023-04-16T00:13:03;10.00;99.90
13589;DHT22;6865;52.552;13.434;2023-04-16T00:15:29;10.00;99.90
13589;DHT22;6865;52.552;13.434;2023-04-16T00:17:56;10.00;99.90
13589;DHT22;6865;52.552;13.434;2023-04-16T00:20:23;10.00;99.90
13589;DHT22;6865;52.552;13.434;2023-04-16T00:22:50;10.00;99.90
13589;DHT22;6865;52.552;13.434;2023-04-16T00:25:16;9.80;99.90
13589;DHT22;6865;52.552;13.434;2023-04-16T00:27:43;10.00;99.90
13589;DHT22;6865;52.552;13.434;2023-04-16T00:30:10;10.00;99.90
13589;DHT22;6865;52.552;13.434;2023-04-16T00:32:36;10.00;99.90
13589;DHT22;6865;52.552;13.434;2023-04-16T00:35:03;10.00;99.90
13589;DHT22;6865;52.552;13.434;2023-04-16T00:37:30;10.00;99.90
13589;DHT22;6865;52.552;13.434;2023-04-16T00:39:56;10.00;99.90
13589;DHT22;6865;52.552;13.434;2023-04-16T00:42:23;9.90;99.90
13589;DHT22;6865;52.552;13.434;2023-04-16T00:44:50;10.00;99.90
13589;DHT22;6865;52.552;13.434;2023-04-16T00:47:16;9.90;99.90
13589;DHT22;6865;52.552;13.434;2023-04-16T00:49:44;9.90;99.90
13589;DHT22;6865;52.552;13.434;2023-04-16T00:52:11;10.00;99.90
13589;DHT22;6865;52.552;13.434;2023-04-16T00:54:38;10.00;99.90
13589;DHT22;6865;52.552;13.434;2023-04-16T00:57:05;10.00;99.90
13589;DHT22;6865;52.552;13.434;2023-04-16T00:59:32;9.90;99.90
13589;DHT22;6865;52.552;13.434;2023-04-16T01:01:58;9.90;99.90
13589;DHT22;6865;52.552;13.434;2023-04-16T01:04:25;9.90;99.90
13589;DHT22;6865;52.552;13.434;2023-04-16T01:06:52;9.90;99.90
13589;DHT22;6865;52.552;13.434;2023-04-16T01:09:19;9.90;99.90
13589;DHT22;6865;52.552;13.434;2023-04-16T01:11:45;9.90;99.90
13589;DHT22;6865;52.552;13.434;2023-04-16T01:14:12;9.90;99.90
13589;DHT22;6865;52.552;13.434;2023-04-16T01:16:39;9.90;99.90
13589;DHT22;6865;52.552;13.434;2023-04-16T01:19:08;9.90;99.90
13589;DHT22;6865;52.552;13.434;2023-04-16T01:21:35;9.80;99.90
13589;DHT22;6865;52.552;13.434;2023-04-16T01:24:03;9.90;99.90
13589;DHT22;6865;52.552;13.434;2023-04-16T01:26:30;9.90;99.90
13589;DHT22;6865;52.552;13.434;2023-04-16T01:28:58;9.90;99.90
13589;DHT22;6865;52.552;13.434;2023-04-16T01:31:25;9.80;99.90
13589;DHT22;6865;52.552;13.434;2023-04-16T01:33:51;9.90;99.90
13589;DHT22;6865;52.552;13.434;2023-04-16T01:36:18;9.90;99.90
13589;DHT22;6865;52.552;13.434;2023-04-16T01:38:45;8.80;99.90
13589;DHT22;6865;52.552;13.434;2023-04-16T01:41:11;9.90;99.90
13589;DHT22;6865;52.552;13.434;2023-04-16T01:43:38;9.90;99.90
13589;DHT22;6865;52.552;13.434;2023-04-16T01:46:13;9.90;99.90
13589;DHT22;6865;52.552;13.434;2023-04-16T01:48:40;9.90;99.90
13589;DHT22;6865;52.552;13.434;2023-04-16T01:51:07;9.90;99.90
13589;DHT22;6865;52.552;13.434;2023-04-16T01:53:33;9.90;99.90
13589;DHT22;6865;52.552;13.434;2023-04-16T01:56:02;9.90;99.90
13589;DHT22;6865;52.552;13.434;2023-04-16T01:58:31;9.80;99.90
13589;DHT22;6865;52.552;13.434;2023-04-16T02:00:57;9.90;99.90
13589;DHT22;6865;52.552;13.434;2023-04-16T02:03:24;9.80;99.90
13589;DHT22;6865;52.552;13.434;2023-04-16T02:05:51;9.80;99.90
13589;DHT22;6865;52.552;13.434;2023-04-16T02:08:18;9.80;99.90
13589;DHT22;6865;52.552;13.434;2023-04-16T02:10:46;9.80;99.90
13589;DHT22;6865;52.552;13.434;2023-04-16T02:13:14;9.80;99.90
13589;DHT22;6865;52.552;13.434;2023-04-16T02:15:48;9.80;99.90
13589;DHT22;6865;52.552;13.434;2023-04-16T02:18:15;9.70;99.90
13589;DHT22;6865;52.552;13.434;2023-04-16T02:20:42;9.80;99.90
13589;DHT22;6865;52.552;13.434;2023-04-16T02:23:09;9.70;99.90
13589;DHT22;6865;52.552;13.434;2023-04-16T02:25:41;9.70;99.90
13589;DHT22;6865;52.552;13.434;2023-04-16T02:28:13;9.70;99.90
13589;DHT22;6865;52.552;13.434;2023-04-16T02:30:40;9.70;99.90
13589;DHT22;6865;52.552;13.434;2023-04-16T02:33:09;9.60;99.90
13589;DHT22;6865;52.552;13.434;2023-04-16T02:35:37;9.70;99.90
13589;DHT22;6865;52.552;13.434;2023-04-16T02:38:04;9.70;99.90
13589;DHT22;6865;52.552;13.434;2023-04-16T02:40:31;9.70;99.90
13589;DHT22;6865;52.552;13.434;2023-04-16T02:42:58;9.60;99.90
13589;DHT22;6865;52.552;13.434;2023-04-16T02:45:24;9.60;99.90
13589;DHT22;6865;52.552;13.434;2023-04-16T02:47:51;9.60;99.90
13589;DHT22;6865;52.552;13.434;2023-04-16T02:50:18;9.60;99.90
13589;DHT22;6865;52.552;13.434;2023-04-16T02:52:44;9.60;99.90
13589;DHT22;6865;52.552;13.434;2023-04-16T02:55:11;9.60;99.90
13589;DHT22;6865;52.552;13.434;2023-04-16T02:57:38;9.60;99.90
13589;DHT22;6865;52.552;13.434;2023-04-16T03:00:05;9.60;99.90
13589;DHT22;6865;52.552;13.434;2023-04-16T03:02:32;9.60;99.90
13589;DHT22;6865;52.552;13.434;2023-04-16T03:04:58;9.60;99.90
13589;DHT22;6865;52.552;13.434;2023-04-16T03:07:25;9.60;99.90
13589;DHT22;6865;52.552;13.434;2023-04-16T03:09:52;9.60;99.90
13589;DHT22;6865;52.552;13.434;2023-04-16T03:12:18;9.60;99.90
13589;DHT22;6865;52.552;13.434;2023-04-16T03:14:45;9.50;99.90
13589;DHT22;6865;52.552;13.434;2023-04-16T03:17:11;9.50;99.90
13589;DHT22;6865;52.552;13.434;2023-04-16T03:19:38;9.50;99.90
13589;DHT22;6865;52.552;13.434;2023-04-16T03:22:04;9.50;99.90
13589;DHT22;6865;52.552;13.434;2023-04-16T03:24:31;9.50;99.90
13589;DHT22;6865;52.552;13.434;2023-04-16T03:26:58;9.30;99.90
13589;DHT22;6865;52.552;13.434;2023-04-16T03:29:24;9.40;99.90
13589;DHT22;6865;52.552;13.434;2023-04-16T03:31:52;9.40;99.90
13589;DHT22;6865;52.552;13.434;2023-04-16T03:34:18;9.40;99.90
13589;DHT22;6865;52.552;13.434;2023-04-16T03:36:45;9.30;99.90
13589;DHT22;6865;52.552;13.434;2023-04-16T03:39:12;9.30;99.90
13589;DHT22;6865;52.552;13.434;2023-04-16T03:41:38;9.20;99.90
13589;DHT22;6865;52.552;13.434;2023-04-16T03:44:05;9.30;99.90
13589;DHT22;6865;52.552;13.434;2023-04-16T03:46:31;9.20;99.90
13589;DHT22;6865;52.552;13.434;2023-04-16T03:48:58;9.30;99.90
13589;DHT22;6865;52.552;13.434;2023-04-16T03:51:25;9.30;99.90
13589;DHT22;6865;52.552;13.434;2023-04-16T03:53:51;9.20;99.90
13589;DHT22;6865;52.552;13.434;2023-04-16T03:56:18;9.20;99.90
13589;DHT22;6865;52.552;13.434;2023-04-16T03:58:45;8.70;99.90
13589;DHT22;6865;52.552;13.434;2023-04-16T04:01:11;9.30;99.90
13589;DHT22;6865;52.552;13.434;2023-04-16T04:03:38;9.20;99.90
13589;DHT22;6865;52.552;13.434;2023-04-16T04:06:06;9.20;99.90
13589;DHT22;6865;52.552;13.434;2023-04-16T04:08:33;9.20;99.90
13589;DHT22;6865;52.552;13.434;2023-04-16T04:11:00;9.20;99.90
13589;DHT22;6865;52.552;13.434;2023-04-16T04:13:27;9.20;99.90
13589;DHT22;6865;52.552;13.434;2023-04-16T04:15:53;9.20;99.90
13589;DHT22;6865;52.552;13.434;2023-04-16T04:18:20;9.20;99.90
13589;DHT22;6865;52.552;13.434;2023-04-16T04:20:47;9.30;99.90
13589;DHT22;6865;52.552;13.434;2023-04-16T04:23:13;9.30;99.90
13589;DHT22;6865;52.552;13.434;2023-04-16T04:25:40;9.20;99.90
13589;DHT22;6865;52.552;13.434;2023-04-16T04:28:07;9.20;99.90
13589;DHT22;6865;52.552;13.434;2023-04-16T04:30:33;9.30;99.90
13589;DHT22;6865;52.552;13.434;2023-04-16T04:33:01;9.30;99.90
13589;DHT22;6865;52.552;13.434;2023-04-16T04:35:28;9.30;99.90
13589;DHT22;6865;52.552;13.434;2023-04-16T04:37:54;9.30;99.90
13589;DHT22;6865;52.552;13.434;2023-04-16T04:40:21;9.30;99.90
13589;DHT22;6865;52.552;13.434;2023-04-16T04:42:48;9.30;99.90
13589;DHT22;6865;52.552;13.434;2023-04-16T04:45:14;9.10;99.90
13589;DHT22;6865;52.552;13.434;2023-04-16T04:47:41;9.20;99.90
13589;DHT22;6865;52.552;13.434;2023-04-16T04:50:08;9.30;99.90
13589;DHT22;6865;52.552;13.434;2023-04-16T04:52:35;9.20;99.90
13589;DHT22;6865;52.552;13.434;2023-04-16T04:55:02;9.20;99.90
13589;DHT22;6865;52.552;13.434;2023-04-16T04:57:29;9.20;99.90
13589;DHT22;6865;52.552;13.434;2023-04-16T04:59:55;9.20;99.90
13589;DHT22;6865;52.552;13.434;2023-04-16T05:02:22;9.20;99.90
13589;DHT22;6865;52.552;13.434;2023-04-16T05:04:49;9.20;99.90
13589;DHT22;6865;52.552;13.434;2023-04-16T05:07:15;9.20;99.90
13589;DHT22;6865;52.552;13.434;2023-04-16T05:09:42;8.90;99.90
13589;DHT22;6865;52.552;13.434;2023-04-16T05:12:08;9.20;99.90
13589;DHT22;6865;52.552;13.434;2023-04-16T05:14:35;9.20;99.90
13589;DHT22;6865;52.552;13.434;2023-04-16T05:17:02;9.20;99.90
13589;DHT22;6865;52.552;13.434;2023-04-16T05:19:28;9.20;99.90
13589;DHT22;6865;52.552;13.434;2023-04-16T05:21:55;9.10;99.90
13589;DHT22;6865;52.552;13.434;2023-04-16T05:24:22;9.20;99.90
13589;DHT22;6865;52.552;13.434;2023-04-16T05:26:48;9.10;99.90
13589;DHT22;6865;52.552;13.434;2023-04-16T05:29:15;9.20;99.90
13589;DHT22;6865;52.552;13.434;2023-04-16T05:31:42;9.20;99.90
13589;DHT22;6865;52.552;13.434;2023-04-16T05:34:08;9.10;99.90
13589;DHT22;6865;52.552;13.434;2023-04-16T05:36:35;9.20;99.90
13589;DHT22;6865;52.552;13.434;2023-04-16T05:39:01;9.10;99.90
13589;DHT22;6865;52.552;13.434;2023-04-16T05:41:28;9.10;99.90
13589;DHT22;6865;52.552;13.434;2023-04-16T05:43:55;9.10;99.90
13589;DHT22;6865;52.552;13.434;2023-04-16T05:46:21;9.10;99.90
13589;DHT22;6865;52.552;13.434;2023-04-16T05:48:48;9.10;99.90
13589;DHT22;6865;52.552;13.434;2023-04-16T05:51:15;9.20;99.90
13589;DHT22;6865;52.552;13.434;2023-04-16T05:53:41;9.20;99.90
13589;DHT22;6865;52.552;13.434;2023-04-16T05:56:08;9.00;99.90
13589;DHT22;6865;52.552;13.434;2023-04-16T05:58:35;9.20;99.90
13589;DHT22;6865;52.552;13.434;2023-04-16T06:01:01;9.20;99.90
13589;DHT22;6865;52.552;13.434;2023-04-16T06:03:28;9.20;99.90
13589;DHT22;6865;52.552;13.434;2023-04-16T06:05:55;9.20;99.90
13589;DHT22;6865;52.552;13.434;2023-04-16T06:08:22;9.30;99.90
13589;DHT22;6865;52.552;13.434;2023-04-16T06:10:49;9.20;99.90
13589;DHT22;6865;52.552;13.434;2023-04-16T06:13:17;9.20;99.90
13589;DHT22;6865;52.552;13.434;2023-04-16T06:15:43;9.20;99.90
13589;DHT22;6865;52.552;13.434;2023-04-16T06:18:10;9.20;99.90
13589;DHT22;6865;52.552;13.434;2023-04-16T06:20:37;9.20;99.90
13589;DHT22;6865;52.552;13.434;2023-04-16T06:23:03;9.30;99.90
13589;DHT22;6865;52.552;13.434;2023-04-16T06:25:30;9.30;99.90
13589;DHT22;6865;52.552;13.434;2023-04-16T06:27:57;9.30;99.90
13589;DHT22;6865;52.552;13.434;2023-04-16T06:30:23;9.30;99.90
13589;DHT22;6865;52.552;13.434;2023-04-16T06:32:50;9.30;99.90
13589;DHT22;6865;52.552;13.434;2023-04-16T06:35:17;9.20;99.90
13589;DHT22;6865;52.552;13.434;2023-04-16T06:37:45;9.30;99.90
13589;DHT22;6865;52.552;13.434;2023-04-16T06:40:12;9.30;99.90
13589;DHT22;6865;52.552;13.434;2023-04-16T06:42:39;9.30;99.90
13589;DHT22;6865;52.552;13.434;2023-04-16T06:45:10;9.40;99.90
13589;DHT22;6865;52.552;13.434;2023-04-16T06:47:37;9.40;99.90
13589;DHT22;6865;52.552;13.434;2023-04-16T06:50:04;9.20;99.90
13589;DHT22;6865;52.552;13.434;2023-04-16T06:52:31;9.40;99.90
13589;DHT22;6865;52.552;13.434;2023-04-16T06:54:58;9.50;99.90
13589;DHT22;6865;52.552;13.434;2023-04-16T06:57:24;9.50;99.90
13589;DHT22;6865;52.552;13.434;2023-04-16T06:59:51;9.50;99.90
13589;DHT22;6865;52.552;13.434;2023-04-16T07:02:18;9.40;99.90
13589;DHT22;6865;52.552;13.434;2023-04-16T07:04:45;9.50;99.90
13589;DHT22;6865;52.552;13.434;2023-04-16T07:07:11;9.50;99.90
13589;DHT22;6865;52.552;13.434;2023-04-16T07:09:38;9.40;99.90
13589;DHT22;6865;52.552;13.434;2023-04-16T07:12:05;9.50;99.90
13589;DHT22;6865;52.552;13.434;2023-04-16T07:14:32;9.50;99.90
13589;DHT22;6865;52.552;13.434;2023-04-16T07:16:59;9.50;99.90
13589;DHT22;6865;52.552;13.434;2023-04-16T07:19:25;9.60;99.90
13589;DHT22;6865;52.552;13.434;2023-04-16T07:21:55;9.50;99.90
13589;DHT22;6865;52.552;13.434;2023-04-16T07:24:22;9.50;99.90
13589;DHT22;6865;52.552;13.434;2023-04-16T07:26:49;9.50;99.90
13589;DHT22;6865;52.552;13.434;2023-04-16T07:29:15;9.50;99.90
13589;DHT22;6865;52.552;13.434;2023-04-16T07:31:42;9.50;99.90
13589;DHT22;6865;52.552;13.434;2023-04-16T07:34:09;9.60;99.90
13589;DHT22;6865;52.552;13.434;2023-04-16T07:36:35;9.60;99.90
13589;DHT22;6865;52.552;13.434;2023-04-16T07:39:03;9.60;99.90
13589;DHT22;6865;52.552;13.434;2023-04-16T07:41:30;9.60;99.90
13589;DHT22;6865;52.552;13.434;2023-04-16T07:43:57;9.60;99.90
13589;DHT22;6865;52.552;13.434;2023-04-16T07:46:24;9.60;99.90
13589;DHT22;6865;52.552;13.434;2023-04-16T07:48:58;8.40;99.90
13589;DHT22;6865;52.552;13.434;2023-04-16T07:51:25;9.70;99.90
13589;DHT22;6865;52.552;13.434;2023-04-16T07:53:52;8.70;99.90
13589;DHT22;6865;52.552;13.434;2023-04-16T07:56:18;9.60;99.90
13589;DHT22;6865;52.552;13.434;2023-04-16T07:58:45;9.70;99.90
13589;DHT22;6865;52.552;13.434;2023-04-16T08:01:12;9.60;99.90
13589;DHT22;6865;52.552;13.434;2023-04-16T08:03:41;9.60;99.90
13589;DHT22;6865;52.552;13.434;2023-04-16T08:06:08;9.60;99.90
13589;DHT22;6865;52.552;13.434;2023-04-16T08:08:35;9.60;99.90
13589;DHT22;6865;52.552;13.434;2023-04-16T08:11:01;9.60;99.90
13589;DHT22;6865;52.552;13.434;2023-04-16T08:13:28;9.60;99.90
13589;DHT22;6865;52.552;13.434;2023-04-16T08:15:57;9.60;99.90
13589;DHT22;6865;52.552;13.434;2023-04-16T08:18:23;9.70;99.90
13589;DHT22;6865;52.552;13.434;2023-04-16T08:20:50;9.60;99.90
13589;DHT22;6865;52.552;13.434;2023-04-16T08:23:17;9.60;99.90
13589;DHT22;6865;52.552;13.434;2023-04-16T08:25:43;9.60;99.90
13589;DHT22;6865;52.552;13.434;2023-04-16T08:28:10;9.60;99.90
13589;DHT22;6865;52.552;13.434;2023-04-16T08:30:37;9.60;99.90
13589;DHT22;6865;52.552;13.434;2023-04-16T08:33:04;9.60;99.90
13589;DHT22;6865;52.552;13.434;2023-04-16T08:35:30;9.60;99.90
13589;DHT22;6865;52.552;13.434;2023-04-16T08:37:57;9.70;99.90
13589;DHT22;6865;52.552;13.434;2023-04-16T08:40:28;9.70;99.90
13589;DHT22;6865;52.552;13.434;2023-04-16T08:42:57;9.70;99.90
13589;DHT22;6865;52.552;13.434;2023-04-16T08:45:25;9.70;99.90
13589;DHT22;6865;52.552;13.434;2023-04-16T08:47:53;9.70;99.90
13589;DHT22;6865;52.552;13.434;2023-04-16T08:50:24;9.80;99.90
13589;DHT22;6865;52.552;13.434;2023-04-16T08:52:52;9.80;99.90
13589;DHT22;6865;52.552;13.434;2023-04-16T08:55:22;9.80;99.90
13589;DHT22;6865;52.552;13.434;2023-04-16T08:57:53;9.80;99.90
13589;DHT22;6865;52.552;13.434;2023-04-16T09:00:23;9.80;99.90
13589;DHT22;6865;52.552;13.434;2023-04-16T09:02:50;9.80;99.90
13589;DHT22;6865;52.552;13.434;2023-04-16T09:05:17;9.80;99.90
13589;DHT22;6865;52.552;13.434;2023-04-16T09:07:47;9.90;99.90
13589;DHT22;6865;52.552;13.434;2023-04-16T09:10:14;9.90;99.90
13589;DHT22;6865;52.552;13.434;2023-04-16T09:12:42;9.90;99.90
13589;DHT22;6865;52.552;13.434;2023-04-16T09:15:12;10.10;99.90
13589;DHT22;6865;52.552;13.434;2023-04-16T09:17:39;10.00;99.90
13589;DHT22;6865;52.552;13.434;2023-04-16T09:20:07;10.10;99.90
13589;DHT22;6865;52.552;13.434;2023-04-16T09:22:35;10.10;99.90
13589;DHT22;6865;52.552;13.434;2023-04-16T09:25:02;10.10;99.90
13589;DHT22;6865;52.552;13.434;2023-04-16T09:27:29;10.20;99.90
13589;DHT22;6865;52.552;13.434;2023-04-16T09:29:56;10.10;99.90
13589;DHT22;6865;52.552;13.434;2023-04-16T09:32:25;10.20;99.90
13589;DHT22;6865;52.552;13.434;2023-04-16T09:34:57;10.20;99.90
13589;DHT22;6865;52.552;13.434;2023-04-16T09:37:25;10.20;99.90
13589;DHT22;6865;52.552;13.434;2023-04-16T09:39:55;9.90;99.90
13589;DHT22;6865;52.552;13.434;2023-04-16T09:42:26;10.30;99.90
13589;DHT22;6865;52.552;13.434;2023-04-16T09:44:53;10.20;99.90
13589;DHT22;6865;52.552;13.434;2023-04-16T09:47:22;10.30;99.90
13589;DHT22;6865;52.552;13.434;2023-04-16T09:49:49;10.20;99.90
13589;DHT22;6865;52.552;13.434;2023-04-16T09:52:18;10.30;99.90
13589;DHT22;6865;52.552;13.434;2023-04-16T09:54:52;10.30;99.90
13589;DHT22;6865;52.552;13.434;2023-04-16T09:57:21;10.40;99.90
13589;DHT22;6865;52.552;13.434;2023-04-16T09:59:51;10.50;99.90
13589;DHT22;6865;52.552;13.434;2023-04-16T10:02:27;10.60;99.90
13589;DHT22;6865;52.552;13.434;2023-04-16T10:04:55;10.70;99.90
13589;DHT22;6865;52.552;13.434;2023-04-16T10:07:27;10.70;99.90
13589;DHT22;6865;52.552;13.434;2023-04-16T10:09:54;10.70;99.90
13589;DHT22;6865;52.552;13.434;2023-04-16T10:12:22;10.70;99.90
13589;DHT22;6865;52.552;13.434;2023-04-16T10:14:48;10.70;99.90
13589;DHT22;6865;52.552;13.434;2023-04-16T10:17:16;10.60;99.90
13589;DHT22;6865;52.552;13.434;2023-04-16T10:19:43;10.70;99.90
13589;DHT22;6865;52.552;13.434;2023-04-16T10:22:11;10.70;99.90
13589;DHT22;6865;52.552;13.434;2023-04-16T10:24:40;10.80;99.90
13589;DHT22;6865;52.552;13.434;2023-04-16T10:27:13;10.90;99.90
13589;DHT22;6865;52.552;13.434;2023-04-16T10:29:40;11.00;99.90
13589;DHT22;6865;52.552;13.434;2023-04-16T10:32:07;10.90;99.90
13589;DHT22;6865;52.552;13.434;2023-04-16T10:34:34;11.10;99.90
13589;DHT22;6865;52.552;13.434;2023-04-16T10:37:02;11.00;99.90
13589;DHT22;6865;52.552;13.434;2023-04-16T10:39:28;11.00;99.90
13589;DHT22;6865;52.552;13.434;2023-04-16T10:42:10;11.00;99.90
13589;DHT22;6865;52.552;13.434;2023-04-16T10:44:41;11.00;99.90
13589;DHT22;6865;52.552;13.434;2023-04-16T10:47:12;11.00;99.90
13589;DHT22;6865;52.552;13.434;2023-04-16T10:49:39;11.00;99.90
13589;DHT22;6865;52.552;13.434;2023-04-16T10:52:11;11.10;99.90
13589;DHT22;6865;52.552;13.434;2023-04-16T10:54:38;11.10;99.90
13589;DHT22;6865;52.552;13.434;2023-04-16T10:57:09;11.20;99.90
13589;DHT22;6865;52.552;13.434;2023-04-16T10:59:36;11.40;99.90
13589;DHT22;6865;52.552;13.434;2023-04-16T11:02:11;11.60;99.90
13589;DHT22;6865;52.552;13.434;2023-04-16T11:04:41;11.70;99.90
13589;DHT22;6865;52.552;13.434;2023-04-16T11:09:54;12.20;99.90
13589;DHT22;6865;52.552;13.434;2023-04-16T11:12:26;12.20;99.90
13589;DHT22;6865;52.552;13.434;2023-04-16T11:17:29;12.10;99.90
13589;DHT22;6865;52.552;13.434;2023-04-16T11:19:56;12.00;99.90
13589;DHT22;6865;52.552;13.434;2023-04-16T11:22:23;11.90;99.90
13589;DHT22;6865;52.552;13.434;2023-04-16T11:24:54;11.80;99.90
13589;DHT22;6865;52.552;13.434;2023-04-16T11:27:23;11.70;99.90
13589;DHT22;6865;52.552;13.434;2023-04-16T11:30:00;11.70;99.90
13589;DHT22;6865;52.552;13.434;2023-04-16T11:32:30;11.60;99.90
13589;DHT22;6865;52.552;13.434;2023-04-16T11:34:57;11.60;99.90
13589;DHT22;6865;52.552;13.434;2023-04-16T11:37:33;11.60;99.90
13589;DHT22;6865;52.552;13.434;2023-04-16T11:40:04;11.50;99.90
13589;DHT22;6865;52.552;13.434;2023-04-16T11:42:33;11.60;99.90
13589;DHT22;6865;52.552;13.434;2023-04-16T11:45:03;11.60;99.90
13589;DHT22;6865;52.552;13.434;2023-04-16T11:47:30;11.70;99.90
13589;DHT22;6865;52.552;13.434;2023-04-16T11:50:17;11.70;99.90
13589;DHT22;6865;52.552;13.434;2023-04-16T11:52:44;11.90;99.90
13589;DHT22;6865;52.552;13.434;2023-04-16T11:55:11;11.90;99.90
13589;DHT22;6865;52.552;13.434;2023-04-16T11:57:37;11.80;99.90
13589;DHT22;6865;52.552;13.434;2023-04-16T12:00:04;11.70;99.90
13589;DHT22;6865;52.552;13.434;2023-04-16T12:02:37;11.60;99.90
13589;DHT22;6865;52.552;13.434;2023-04-16T12:05:27;11.50;99.90
13589;DHT22;6865;52.552;13.434;2023-04-16T12:07:54;11.40;99.90
13589;DHT22;6865;52.552;13.434;2023-04-16T12:10:21;11.40;99.90
13589;DHT22;6865;52.552;13.434;2023-04-16T12:12:48;11.40;99.90
13589;DHT22;6865;52.552;13.434;2023-04-16T12:15:15;11.40;99.90
13589;DHT22;6865;52.552;13.434;2023-04-16T12:17:42;11.30;99.90
13589;DHT22;6865;52.552;13.434;2023-04-16T12:20:12;11.30;99.90
13589;DHT22;6865;52.552;13.434;2023-04-16T12:22:47;11.30;99.90
13589;DHT22;6865;52.552;13.434;2023-04-16T12:25:16;11.20;99.90
13589;DHT22;6865;52.552;13.434;2023-04-16T12:27:51;11.20;99.90
13589;DHT22;6865;52.552;13.434;2023-04-16T12:30:21;11.10;99.90
13589;DHT22;6865;52.552;13.434;2023-04-16T12:32:49;11.00;99.90
13589;DHT22;6865;52.552;13.434;2023-04-16T12:35:30;11.00;99.90
13589;DHT22;6865;52.552;13.434;2023-04-16T12:37:58;10.90;99.90
13589;DHT22;6865;52.552;13.434;2023-04-16T12:40:25;10.90;99.90
13589;DHT22;6865;52.552;13.434;2023-04-16T12:42:52;10.90;99.90
13589;DHT22;6865;52.552;13.434;2023-04-16T12:45:18;10.90;99.90
13589;DHT22;6865;52.552;13.434;2023-04-16T12:47:46;10.90;99.90
13589;DHT22;6865;52.552;13.434;2023-04-16T12:50:13;10.90;99.90
13589;DHT22;6865;52.552;13.434;2023-04-16T12:52:40;10.90;99.90
13589;DHT22;6865;52.552;13.434;2023-04-16T12:55:07;10.90;99.90
13589;DHT22;6865;52.552;13.434;2023-04-16T12:57:34;10.90;99.90
13589;DHT22;6865;52.552;13.434;2023-04-16T13:00:01;10.90;99.90
13589;DHT22;6865;52.552;13.434;2023-04-16T13:02:27;10.80;99.90
13589;DHT22;6865;52.552;13.434;2023-04-16T13:05:03;10.80;99.90
13589;DHT22;6865;52.552;13.434;2023-04-16T13:07:30;10.70;99.90
13589;DHT22;6865;52.552;13.434;2023-04-16T13:09:57;10.70;99.90
13589;DHT22;6865;52.552;13.434;2023-04-16T13:12:25;10.70;99.90
13589;DHT22;6865;52.552;13.434;2023-04-16T13:14:53;10.80;99.90
13589;DHT22;6865;52.552;13.434;2023-04-16T13:17:21;10.70;99.90
13589;DHT22;6865;52.552;13.434;2023-04-16T13:19:47;10.80;99.90
13589;DHT22;6865;52.552;13.434;2023-04-16T13:22:14;10.90;99.90
13589;DHT22;6865;52.552;13.434;2023-04-16T13:24:41;11.00;99.90
13589;DHT22;6865;52.552;13.434;2023-04-16T13:27:08;11.00;99.90
13589;DHT22;6865;52.552;13.434;2023-04-16T13:29:37;11.10;99.90
13589;DHT22;6865;52.552;13.434;2023-04-16T13:32:04;11.20;99.90
13589;DHT22;6865;52.552;13.434;2023-04-16T13:34:31;11.20;99.90
13589;DHT22;6865;52.552;13.434;2023-04-16T13:36:58;11.30;99.90
13589;DHT22;6865;52.552;13.434;2023-04-16T13:39:24;11.30;99.90
13589;DHT22;6865;52.552;13.434;2023-04-16T13:41:51;11.30;99.90
13589;DHT22;6865;52.552;13.434;2023-04-16T13:44:18;11.40;99.90
13589;DHT22;6865;52.552;13.434;2023-04-16T13:46:44;11.40;99.90
13589;DHT22;6865;52.552;13.434;2023-04-16T13:49:13;11.50;99.90
13589;DHT22;6865;52.552;13.434;2023-04-16T13:51:42;11.60;99.90
13589;DHT22;6865;52.552;13.434;2023-04-16T13:54:10;11.70;99.90
13589;DHT22;6865;52.552;13.434;2023-04-16T13:56:36;11.80;99.90
13589;DHT22;6865;52.552;13.434;2023-04-16T13:59:03;11.90;99.90
13589;DHT22;6865;52.552;13.434;2023-04-16T14:01:30;12.00;99.90
13589;DHT22;6865;52.552;13.434;2023-04-16T14:03:56;12.10;99.90
13589;DHT22;6865;52.552;13.434;2023-04-16T14:06:25;12.20;99.90
13589;DHT22;6865;52.552;13.434;2023-04-16T14:08:52;12.30;99.90
13589;DHT22;6865;52.552;13.434;2023-04-16T14:11:19;12.10;99.90
13589;DHT22;6865;52.552;13.434;2023-04-16T14:13:45;12.10;99.90
13589;DHT22;6865;52.552;13.434;2023-04-16T14:16:12;12.10;99.90
13589;DHT22;6865;52.552;13.434;2023-04-16T14:18:39;12.00;99.90
13589;DHT22;6865;52.552;13.434;2023-04-16T14:21:08;11.90;99.90
13589;DHT22;6865;52.552;13.434;2023-04-16T14:23:34;11.80;99.90
13589;DHT22;6865;52.552;13.434;2023-04-16T14:26:01;11.70;99.90
13589;DHT22;6865;52.552;13.434;2023-04-16T14:28:29;11.70;99.90
13589;DHT22;6865;52.552;13.434;2023-04-16T14:30:55;11.60;99.90
13589;DHT22;6865;52.552;13.434;2023-04-16T14:33:22;11.60;99.90
13589;DHT22;6865;52.552;13.434;2023-04-16T14:35:49;11.50;99.90
13589;DHT22;6865;52.552;13.434;2023-04-16T14:38:16;11.40;99.90
13589;DHT22;6865;52.552;13.434;2023-04-16T14:40:43;11.40;99.90
13589;DHT22;6865;52.552;13.434;2023-04-16T14:43:10;11.30;99.90
13589;DHT22;6865;52.552;13.434;2023-04-16T14:45:37;11.30;99.90
13589;DHT22;6865;52.552;13.434;2023-04-16T14:48:16;11.30;99.90
13589;DHT22;6865;52.552;13.434;2023-04-16T14:50:43;11.20;99.90
13589;DHT22;6865;52.552;13.434;2023-04-16T14:53:11;11.10;99.90
13589;DHT22;6865;52.552;13.434;2023-04-16T14:55:38;11.00;99.90
13589;DHT22;6865;52.552;13.434;2023-04-16T14:58:05;11.00;99.90
13589;DHT22;6865;52.552;13.434;2023-04-16T15:00:33;10.90;99.90
13589;DHT22;6865;52.552;13.434;2023-04-16T15:03:01;10.80;99.90
13589;DHT22;6865;52.552;13.434;2023-04-16T15:05:29;10.80;99.90
13589;DHT22;6865;52.552;13.434;2023-04-16T15:07:57;10.70;99.90
13589;DHT22;6865;52.552;13.434;2023-04-16T15:10:24;10.70;99.90
13589;DHT22;6865;52.552;13.434;2023-04-16T15:12:51;10.60;99.90
13589;DHT22;6865;52.552;13.434;2023-04-16T15:15:17;10.60;99.90
13589;DHT22;6865;52.552;13.434;2023-04-16T15:17:44;10.60;99.90
13589;DHT22;6865;52.552;13.434;2023-04-16T15:20:12;11.00;99.90
13589;DHT22;6865;52.552;13.434;2023-04-16T15:22:39;10.50;99.90
13589;DHT22;6865;52.552;13.434;2023-04-16T15:25:06;10.50;99.90
13589;DHT22;6865;52.552;13.434;2023-04-16T15:27:33;10.50;99.90
13589;DHT22;6865;52.552;13.434;2023-04-16T15:30:02;10.50;99.90
13589;DHT22;6865;52.552;13.434;2023-04-16T15:32:30;10.50;99.90
13589;DHT22;6865;52.552;13.434;2023-04-16T15:35:01;10.50;99.90
13589;DHT22;6865;52.552;13.434;2023-04-16T15:37:28;10.60;99.90
13589;DHT22;6865;52.552;13.434;2023-04-16T15:39:55;10.50;99.90
13589;DHT22;6865;52.552;13.434;2023-04-16T15:42:22;10.90;99.90
13589;DHT22;6865;52.552;13.434;2023-04-16T15:44:49;10.50;99.90
13589;DHT22;6865;52.552;13.434;2023-04-16T15:47:16;10.50;99.90